createdAt,value
2023-02-23T14:04:29.807Z,11.45
2023-02-23T14:05:29.672Z,11.46
2023-02-23T14:06:29.669Z,11.50
2023-02-23T14:07:29.598Z,11.50
2023-02-23T14:08:29.673Z,11.49
2023-02-23T14:09:29.591Z,11.47
2023-02-23T14:10:29.621Z,11.50
2023-02-23T14:11:29.542Z,11.48
2023-02-23T14:12:29.664Z,11.50
2023-02-23T14:13:31.443Z,11.53
2023-02-23T14:14:29.698Z,11.54
2023-02-23T14:15:35.459Z,11.56
2023-02-23T14:16:29.666Z,11.60
2023-02-23T14:17:29.574Z,11.61
2023-02-23T14:18:29.622Z,11.59
2023-02-23T14:19:29.740Z,11.59
2023-02-23T14:20:30.322Z,11.61
2023-02-23T14:21:29.730Z,11.63
2023-02-23T14:22:29.715Z,11.63
2023-02-23T14:23:29.659Z,11.64
2023-02-23T14:24:29.699Z,11.66
2023-02-23T14:25:29.666Z,11.68
2023-02-23T14:26:29.680Z,11.71
2023-02-23T14:27:40.732Z,11.72
2023-02-23T14:28:29.763Z,11.75
2023-02-23T14:29:29.736Z,11.76
2023-02-23T14:30:29.765Z,11.77
2023-02-23T14:31:29.777Z,11.76
2023-02-23T14:32:29.806Z,11.77
2023-02-23T14:33:29.638Z,11.75
2023-02-23T14:34:29.634Z,11.75
2023-02-23T14:35:29.683Z,11.75
2023-02-23T14:36:29.812Z,11.79
2023-02-23T14:37:31.814Z,11.80
2023-02-23T14:38:38.791Z,11.83
2023-02-23T14:39:29.872Z,11.84
2023-02-23T14:40:29.804Z,11.87
2023-02-23T14:41:29.884Z,11.86
2023-02-23T14:42:29.846Z,11.84
2023-02-23T14:43:31.696Z,11.86
2023-02-23T14:44:31.130Z,11.88
2023-02-23T14:45:29.901Z,11.87
2023-02-23T14:46:29.834Z,11.89
2023-02-23T14:47:29.812Z,11.92
2023-02-23T14:48:29.779Z,11.92
2023-02-23T14:49:29.791Z,11.92
2023-02-23T14:50:30.270Z,11.93
2023-02-23T14:51:30.114Z,11.94
2023-02-23T14:52:29.904Z,11.94
2023-02-23T14:53:29.814Z,11.92
2023-02-23T14:54:29.821Z,11.93
2023-02-23T14:55:30.081Z,11.95
2023-02-23T14:56:43.486Z,11.94
2023-02-23T14:57:29.875Z,11.93
2023-02-23T14:58:29.903Z,11.94
2023-02-23T14:59:29.943Z,11.91
2023-02-23T15:00:34.316Z,11.95
2023-02-23T15:01:29.947Z,11.96
2023-02-23T15:02:31.343Z,11.94
2023-02-23T15:03:30.667Z,11.93
2023-02-23T15:04:30.091Z,11.90
